Terminal Aerodrome Forecast
Issued by NWS Sioux Falls, SD

Home | Current Version | Previous Version | Text Only | Print | Product List | Glossary Off
Versions: 1 2 3 4 5 6 7 8 9 10 11 12 13 14 15 16 17 18 19 20 21 22 23 24 25 26 27 28 29 30 31 32 33 34

000
FTUS43 KFSD 242331
TAFSUX
TAF
KSUX 242331Z 2500/2524 32018G25KT P6SM SKC
     FM250600 31009KT P6SM BKN200
     FM251000 25005KT P6SM SCT050
     FM251500 19006KT P6SM BKN050
     FM251800 18007KT P6SM OVC012=

USA.gov is the U.S. government's official web portal to all federal, state and local government web resources and services.